KCVO/CVO METAR and TAF weather

Enter ICAO airport designator
Station Type Date Time Source
KCVO METAR 2020/09/20 12:56 UTC NOAA

KCVO 201256Z AUTO 00000KT 10SM OVC013 12/11 A3011 RMK AO2 SLP196 T01170111


Station Type Date Time Source
KCVO Decoded METAR 2020/09/20 12:56 UTC NOAA

Corvallis, Corvallis Municipal Airport, OR, United States (KCVO) 44-30N 123-17W
Sep 20, 2020 - 08:56 AM EDT / 2020.09.20 1256 UTC
Wind: Calm:0
Visibility: 10 mile(s):0
Sky conditions: overcast
Temperature: 53.1 F (11.7 C)
Dew Point: 52.0 F (11.1 C)
Relative Humidity: 96%
Pressure (altimeter): 30.11 in. Hg (1019 hPa)
ob: KCVO 201256Z AUTO 00000KT 10SM OVC013 12/11 A3011 RMK AO2 SLP196 T01170111
cycle: 13

Station Type Date Time Source
KCVO TAF UTC NOAA

Error!

Example: see airport list